Time;durP1;ratioP1;P1;durP2;ratioP2;P2;SDS_P1;SDS_P2;PMS_P1;PMS_P2;Temp;Humidity;BMP_temperature;BMP_pressure;BME280_temperature;BME280_humidity;BME280_pressure;Samples;Min_cycle;Max_cycle;Signal;HPM_P1;HPM_P2
2020/12/05 00:01:23;;;;;;;17.70;10.07;;;7.10;83.60;;;;;;5075122;28;20515;-53
2020/12/05 00:03:49;;;;;;;18.42;11.55;;;6.90;84.20;;;;;;5075320;28;20028;-52
2020/12/05 00:06:22;;;;;;;16.50;9.13;;;6.90;84.30;;;;;;5076404;28;20045;-52
2020/12/05 00:08:50;;;;;;;14.13;9.88;;;6.90;84.70;;;;;;5095199;28;20070;-52
2020/12/05 00:11:16;;;;;;;19.80;10.95;;;6.90;84.90;;;;;;5095123;28;20179;-52
2020/12/05 00:13:42;;;;;;;19.63;11.20;;;6.80;85.20;;;;;;5095632;28;20028;-52
2020/12/05 00:16:07;;;;;;;18.30;11.32;;;6.90;85.30;;;;;;5092451;28;20035;-51
2020/12/05 00:18:33;;;;;;;25.25;14.73;;;6.90;84.90;;;;;;5079146;28;20032;-52
2020/12/05 00:20:59;;;;;;;20.83;13.27;;;7.00;84.60;;;;;;5044839;28;20043;-53
2020/12/05 00:23:24;;;;;;;25.55;14.73;;;7.00;84.70;;;;;;5084405;28;20032;-52
2020/12/05 00:25:50;;;;;;;19.45;12.95;;;7.10;84.00;;;;;;5056769;28;20032;-52
2020/12/05 00:28:16;;;;;;;21.90;14.45;;;7.10;83.70;;;;;;5074759;28;20042;-52
2020/12/05 00:30:42;;;;;;;22.65;13.93;;;7.20;83.40;;;;;;5074523;28;20067;-53
2020/12/05 00:33:07;;;;;;;20.30;13.82;;;7.20;83.40;;;;;;5074957;28;20025;-52
2020/12/05 00:35:33;;;;;;;18.55;10.82;;;7.20;83.60;;;;;;5074328;28;20086;-51
2020/12/05 00:37:59;;;;;;;22.67;14.00;;;7.10;83.50;;;;;;5074509;28;20039;-53
2020/12/05 00:40:25;;;;;;;20.27;11.95;;;7.10;83.50;;;;;;5079460;28;20115;-52
2020/12/05 00:42:51;;;;;;;22.85;14.45;;;7.10;83.70;;;;;;5056283;28;20093;-52
2020/12/05 00:45:17;;;;;;;22.83;14.20;;;7.00;84.10;;;;;;5094902;28;20036;-52
2020/12/05 00:47:43;;;;;;;17.83;12.63;;;6.90;84.90;;;;;;5040996;28;20097;-53
2020/12/05 00:50:08;;;;;;;22.92;13.40;;;7.00;84.60;;;;;;5039044;28;20368;-53
2020/12/05 00:52:34;;;;;;;20.38;12.93;;;7.00;84.50;;;;;;5039859;28;20049;-53
2020/12/05 00:55:00;;;;;;;23.55;13.25;;;6.90;85.40;;;;;;5074147;28;20082;-52
2020/12/05 00:57:28;;;;;;;19.75;12.90;;;6.90;85.20;;;;;;5073825;28;20040;-52
2020/12/05 00:59:54;;;;;;;20.98;13.48;;;6.80;85.60;;;;;;5074075;28;20050;-51
2020/12/05 01:02:23;;;;;;;24.38;14.25;;;6.90;85.60;;;;;;5077793;28;20032;-51
2020/12/05 01:04:50;;;;;;;21.98;15.35;;;7.00;85.10;;;;;;5086079;28;20028;-52
2020/12/05 01:07:19;;;;;;;21.73;13.85;;;7.10;84.60;;;;;;5093977;28;20491;-52
2020/12/05 01:09:45;;;;;;;22.83;14.75;;;7.10;84.50;;;;;;5094010;28;20032;-53
2020/12/05 01:12:11;;;;;;;23.73;15.35;;;7.20;84.20;;;;;;5094145;28;20115;-52
2020/12/05 01:14:37;;;;;;;19.83;13.32;;;7.20;84.00;;;;;;5094061;28;20032;-53
2020/12/05 01:17:02;;;;;;;20.00;13.68;;;7.20;84.30;;;;;;5093938;28;20044;-52
2020/12/05 01:19:28;;;;;;;20.10;12.20;;;7.20;84.20;;;;;;5094057;28;20040;-52
2020/12/05 01:21:55;;;;;;;18.55;12.68;;;7.10;84.50;;;;;;5094208;28;20028;-52
2020/12/05 01:24:20;;;;;;;23.75;13.98;;;7.10;84.50;;;;;;5093830;28;20032;-52
2020/12/05 01:26:47;;;;;;;21.25;13.73;;;7.20;84.40;;;;;;5093918;28;20132;-52
2020/12/05 01:29:12;;;;;;;21.88;14.43;;;7.20;84.00;;;;;;5093786;28;20383;-52
2020/12/05 01:31:38;;;;;;;19.58;12.57;;;7.20;84.40;;;;;;5093535;28;20028;-51
2020/12/05 01:34:04;;;;;;;19.73;12.70;;;7.30;84.00;;;;;;5094025;28;20103;-52
2020/12/05 01:36:30;;;;;;;20.08;13.70;;;7.30;83.80;;;;;;5093778;28;20464;-52
2020/12/05 01:38:56;;;;;;;21.42;13.65;;;7.30;83.90;;;;;;5093945;28;20040;-52
2020/12/05 01:41:22;;;;;;;18.40;12.27;;;7.20;84.40;;;;;;5093868;28;20423;-52
2020/12/05 01:43:47;;;;;;;16.27;10.98;;;7.20;84.50;;;;;;5093764;28;20103;-52
2020/12/05 01:46:47;;;;;;;16.80;10.95;;;7.20;84.30;;;;;;5093680;28;20452;-52
2020/12/05 01:49:17;;;;;;;19.52;12.80;;;7.20;84.50;;;;;;4992097;28;20046;-51
2020/12/05 01:51:44;;;;;;;15.73;11.80;;;7.20;84.50;;;;;;4991962;28;20096;-51
2020/12/05 01:54:10;;;;;;;19.52;12.93;;;7.20;84.20;;;;;;4992004;28;20062;-52
2020/12/05 01:56:37;;;;;;;18.73;12.55;;;7.30;84.20;;;;;;4992005;28;20030;-51
2020/12/05 01:59:03;;;;;;;17.98;12.32;;;7.30;84.00;;;;;;4990311;28;20096;-52
2020/12/05 02:01:30;;;;;;;18.52;12.10;;;7.30;83.80;;;;;;4991969;28;20077;-52
2020/12/05 02:03:57;;;;;;;18.90;13.07;;;7.30;83.90;;;;;;4991926;28;20030;-52
2020/12/05 02:06:26;;;;;;;17.67;12.50;;;7.30;83.70;;;;;;4991806;28;20445;-52
2020/12/05 02:09:05;;;;;;;18.30;13.35;;;7.30;83.80;;;;;;4991721;28;20054;-52
2020/12/05 02:11:38;;;;;;;18.83;13.10;;;7.30;83.90;;;;;;4975640;28;20061;-52
2020/12/05 02:14:07;;;;;;;20.48;13.23;;;7.30;84.20;;;;;;4991837;28;20061;-52
2020/12/05 02:16:34;;;;;;;19.60;12.90;;;7.30;84.30;;;;;;4991634;28;20034;-52
2020/12/05 02:19:01;;;;;;;18.55;12.52;;;7.30;84.30;;;;;;4991779;28;20038;-52
2020/12/05 02:21:29;;;;;;;16.63;12.65;;;7.30;84.50;;;;;;4991681;28;20379;-52
2020/12/05 02:23:58;;;;;;;18.35;12.73;;;7.30;84.20;;;;;;5004409;28;20106;-52
2020/12/05 02:26:27;;;;;;;18.75;11.77;;;7.30;84.40;;;;;;5072927;28;20028;-52
2020/12/05 02:28:53;;;;;;;18.55;12.90;;;7.30;84.40;;;;;;5073302;28;20025;-52
2020/12/05 02:31:18;;;;;;;17.20;12.75;;;7.30;84.30;;;;;;5073118;28;20029;-52
2020/12/05 02:33:44;;;;;;;17.58;12.10;;;7.30;84.10;;;;;;5073008;28;20115;-52
2020/12/05 02:36:11;;;;;;;21.42;12.07;;;7.30;84.60;;;;;;5072909;28;20029;-52
2020/12/05 02:39:04;;;;;;;18.63;11.52;;;7.30;84.90;;;;;;5072725;28;20029;-52
2020/12/05 02:41:30;;;;;;;20.52;13.30;;;7.30;84.50;;;;;;5072900;28;20029;-52
2020/12/05 02:43:56;;;;;;;13.27;8.93;;;7.30;84.80;;;;;;5074539;28;20036;-52
2020/12/05 02:46:22;;;;;;;19.70;12.18;;;7.30;85.00;;;;;;5076858;28;20029;-52
2020/12/05 02:48:47;;;;;;;18.00;12.27;;;7.30;84.70;;;;;;5076484;28;20046;-52
2020/12/05 02:51:13;;;;;;;15.70;10.73;;;7.40;84.60;;;;;;5076696;28;20032;-52
2020/12/05 02:53:39;;;;;;;20.90;12.77;;;7.40;84.70;;;;;;5076386;28;20029;-52
2020/12/05 02:56:04;;;;;;;17.00;10.63;;;7.40;84.70;;;;;;5076512;28;20025;-51
2020/12/05 02:58:30;;;;;;;17.13;11.77;;;7.40;85.00;;;;;;5076419;28;20162;-52
2020/12/05 03:00:56;;;;;;;18.63;12.77;;;7.40;85.00;;;;;;5076276;28;20048;-52
2020/12/05 03:03:21;;;;;;;17.67;12.80;;;7.50;84.60;;;;;;5076218;28;20032;-52
2020/12/05 03:05:47;;;;;;;15.88;9.80;;;7.40;84.60;;;;;;5076571;28;20029;-54
2020/12/05 03:08:13;;;;;;;16.88;11.70;;;7.40;84.80;;;;;;5076647;28;20124;-52
2020/12/05 03:10:39;;;;;;;18.80;12.27;;;7.40;84.80;;;;;;5076100;28;20028;-52
2020/12/05 03:13:04;;;;;;;17.88;12.43;;;7.30;85.00;;;;;;5076135;28;20111;-52
2020/12/05 03:15:30;;;;;;;15.93;10.55;;;7.40;85.00;;;;;;5076135;28;20029;-52
2020/12/05 03:17:56;;;;;;;16.15;11.25;;;7.40;85.20;;;;;;5076286;28;20387;-52
2020/12/05 03:20:21;;;;;;;14.13;9.57;;;7.40;85.10;;;;;;5076115;28;20028;-52
2020/12/05 03:22:47;;;;;;;16.77;8.50;;;7.40;85.40;;;;;;5024976;28;20128;-52
2020/12/05 03:25:13;;;;;;;20.33;13.60;;;7.30;85.50;;;;;;5076377;28;20024;-52
2020/12/05 03:27:38;;;;;;;18.38;12.75;;;7.40;85.20;;;;;;5075963;28;20108;-52
2020/12/05 03:30:05;;;;;;;17.65;11.98;;;7.50;85.10;;;;;;5024372;28;20078;-52
2020/12/05 03:32:31;;;;;;;18.17;11.57;;;7.50;84.80;;;;;;5075829;28;20028;-52
2020/12/05 03:34:58;;;;;;;16.15;12.10;;;7.50;84.70;;;;;;5075742;28;20127;-52
2020/12/05 03:37:25;;;;;;;16.67;11.07;;;7.50;84.50;;;;;;5075605;28;20094;-52
2020/12/05 03:39:53;;;;;;;18.70;12.18;;;7.60;84.30;;;;;;5075779;28;20028;-52
2020/12/05 03:42:20;;;;;;;18.02;12.13;;;7.60;84.20;;;;;;5075947;28;20029;-52
2020/12/05 03:44:45;;;;;;;17.23;11.63;;;7.50;84.30;;;;;;5023882;28;20032;-52
2020/12/05 03:47:11;;;;;;;15.50;10.88;;;7.50;84.50;;;;;;5075495;28;20579;-52
2020/12/05 03:49:37;;;;;;;19.67;12.30;;;7.50;84.70;;;;;;5075738;28;20031;-52
2020/12/05 03:52:04;;;;;;;17.35;12.27;;;7.50;84.80;;;;;;5075485;28;20237;-51
2020/12/05 03:54:30;;;;;;;16.90;12.23;;;7.50;84.70;;;;;;5075322;28;20032;-51
2020/12/05 03:56:56;;;;;;;19.17;13.15;;;7.50;84.50;;;;;;5075193;28;20020;-52
2020/12/05 03:59:22;;;;;;;18.58;11.25;;;7.60;84.20;;;;;;5075483;28;20028;-52
2020/12/05 04:01:48;;;;;;;17.15;12.40;;;7.60;83.90;;;;;;5075122;28;20379;-52
2020/12/05 04:04:14;;;;;;;17.05;11.75;;;7.60;83.80;;;;;;5075348;28;20032;-52
2020/12/05 04:06:39;;;;;;;16.30;11.70;;;7.60;84.10;;;;;;4974808;28;20035;-52
2020/12/05 04:09:05;;;;;;;18.23;10.93;;;7.50;84.20;;;;;;5075173;28;20036;-52
2020/12/05 04:11:31;;;;;;;16.80;12.43;;;7.60;84.20;;;;;;5075031;28;20032;-52
2020/12/05 04:13:57;;;;;;;16.48;11.32;;;7.60;84.20;;;;;;5074726;28;20502;-51
2020/12/05 04:16:23;;;;;;;15.48;10.50;;;7.60;83.70;;;;;;5074935;28;20028;-52
2020/12/05 04:18:48;;;;;;;15.10;10.10;;;7.60;83.80;;;;;;5089424;28;20027;-52
2020/12/05 04:21:14;;;;;;;16.83;10.20;;;7.50;83.80;;;;;;5085617;28;20035;-51
2020/12/05 04:23:40;;;;;;;15.45;10.68;;;7.40;84.70;;;;;;5087720;28;20043;-51
2020/12/05 04:26:06;;;;;;;18.98;11.07;;;7.50;84.40;;;;;;5043063;28;20032;-51
2020/12/05 04:28:31;;;;;;;17.77;11.73;;;7.50;84.30;;;;;;5093061;28;20026;-51
2020/12/05 04:30:57;;;;;;;16.00;11.15;;;7.50;84.20;;;;;;5039639;28;20060;-52
2020/12/05 04:33:23;;;;;;;15.02;10.93;;;7.50;83.90;;;;;;5074700;28;20024;-51
2020/12/05 04:35:48;;;;;;;17.20;12.07;;;7.30;84.60;;;;;;5089307;28;20039;-51
2020/12/05 04:38:14;;;;;;;17.90;12.68;;;7.40;84.40;;;;;;5094883;28;20122;-51
2020/12/05 04:40:40;;;;;;;17.90;12.65;;;7.50;84.20;;;;;;5094774;28;20030;-51
2020/12/05 04:43:07;;;;;;;18.15;12.60;;;7.50;84.10;;;;;;5043010;28;20111;-52
2020/12/05 04:45:33;;;;;;;18.73;12.55;;;7.40;84.30;;;;;;5094721;28;20036;-52
2020/12/05 04:48:01;;;;;;;18.85;12.30;;;7.40;84.20;;;;;;5094502;28;20024;-52
2020/12/05 04:50:29;;;;;;;18.60;13.23;;;7.40;83.80;;;;;;5094440;28;20384;-51
2020/12/05 04:53:11;;;;;;;19.67;12.32;;;7.50;83.70;;;;;;5094625;28;20019;-52
2020/12/05 04:55:42;;;;;;;19.48;12.45;;;7.60;83.60;;;;;;5094523;28;20110;-51
2020/12/05 04:58:15;;;;;;;19.33;12.38;;;7.50;84.00;;;;;;5094406;28;20093;-51
2020/12/05 05:00:41;;;;;;;17.25;12.48;;;7.50;84.10;;;;;;5094415;28;20024;-51
2020/12/05 05:03:10;;;;;;;19.20;12.77;;;7.40;84.60;;;;;;5059296;28;20165;-51
2020/12/05 05:05:36;;;;;;;17.95;12.52;;;7.40;84.40;;;;;;5094160;28;20027;-51
2020/12/05 05:08:02;;;;;;;17.73;11.95;;;7.40;84.40;;;;;;5093718;28;20056;-51
2020/12/05 05:10:30;;;;;;;18.17;10.98;;;7.30;84.60;;;;;;5094067;28;20035;-51
2020/12/05 05:13:04;;;;;;;16.65;11.93;;;7.30;84.80;;;;;;5043320;28;20040;-51
2020/12/05 05:15:31;;;;;;;15.88;11.40;;;7.30;85.00;;;;;;5090936;28;20112;-51
2020/12/05 05:18:03;;;;;;;17.80;12.05;;;7.30;84.60;;;;;;5093923;28;20024;-51
2020/12/05 05:20:35;;;;;;;17.80;12.60;;;7.40;84.10;;;;;;5058732;28;20047;-51
2020/12/05 05:23:19;;;;;;;17.73;11.20;;;7.40;84.40;;;;;;5093903;28;20043;-51
2020/12/05 05:25:49;;;;;;;17.77;12.70;;;7.30;84.40;;;;;;5093864;28;20020;-51
2020/12/05 05:28:19;;;;;;;22.92;14.35;;;7.30;84.20;;;;;;5094140;28;20034;-51
2020/12/05 05:31:19;;;;;;;19.85;12.48;;;7.30;84.70;;;;;;5058409;28;20036;-51
2020/12/05 05:33:46;;;;;;;17.98;13.40;;;7.10;85.10;;;;;;5093865;28;20379;-51
2020/12/05 05:36:20;;;;;;;21.08;13.90;;;7.20;85.10;;;;;;5058606;28;20620;-51
2020/12/05 05:39:19;;;;;;;17.33;11.73;;;7.20;85.10;;;;;;5093882;28;20486;-51
2020/12/05 05:41:47;;;;;;;21.00;15.60;;;6.90;86.00;;;;;;4992219;28;20039;-51
2020/12/05 05:44:15;;;;;;;18.70;13.32;;;7.00;85.70;;;;;;4960003;28;20034;-51
2020/12/05 05:46:46;;;;;;;18.83;13.18;;;6.90;85.80;;;;;;4975579;28;20166;-51
2020/12/05 05:49:14;;;;;;;22.52;13.93;;;7.00;85.50;;;;;;4972555;28;20624;-51
2020/12/05 05:51:47;;;;;;;21.08;13.60;;;7.10;85.00;;;;;;4972772;28;20107;-51
2020/12/05 05:54:22;;;;;;;19.45;13.00;;;7.20;84.50;;;;;;4974081;28;20026;-51
2020/12/05 05:57:00;;;;;;;20.00;13.32;;;7.10;84.60;;;;;;4992133;28;20596;-51
2020/12/05 05:59:33;;;;;;;22.77;14.63;;;7.10;84.90;;;;;;4987616;28;20448;-51
2020/12/05 06:02:00;;;;;;;22.38;14.75;;;7.20;84.60;;;;;;4960881;28;20035;-51
2020/12/05 06:04:27;;;;;;;25.50;15.43;;;7.10;85.10;;;;;;4991894;28;20039;-51
2020/12/05 06:06:53;;;;;;;26.27;15.77;;;7.10;84.70;;;;;;4991688;28;20030;-51
2020/12/05 06:09:23;;;;;;;28.58;18.95;;;7.00;85.00;;;;;;4959680;28;20061;-51
2020/12/05 06:11:52;;;;;;;25.17;17.30;;;7.10;84.90;;;;;;4959410;28;20039;-51
2020/12/05 06:14:21;;;;;;;23.92;17.25;;;7.20;84.70;;;;;;4989883;28;20499;-52
2020/12/05 06:16:50;;;;;;;21.30;14.77;;;7.10;84.80;;;;;;5009940;28;20075;-51
2020/12/05 06:19:16;;;;;;;18.67;11.75;;;7.00;85.40;;;;;;5085512;28;20123;-51
2020/12/05 06:21:42;;;;;;;19.92;14.10;;;6.80;86.70;;;;;;5085926;28;20103;-51
2020/12/05 06:24:08;;;;;;;19.90;13.27;;;6.90;87.00;;;;;;5085687;28;20097;-51
2020/12/05 06:26:38;;;;;;;17.48;11.38;;;7.00;86.60;;;;;;5087312;28;20019;-51
2020/12/05 06:29:07;;;;;;;9.32;5.65;;;7.00;86.80;;;;;;5086304;28;20029;-51
2020/12/05 06:31:43;;;;;;;18.17;12.25;;;6.90;87.60;;;;;;5085104;28;20025;-51
2020/12/05 06:34:10;;;;;;;15.80;11.30;;;7.10;87.20;;;;;;5085403;28;20024;-51
2020/12/05 06:36:40;;;;;;;13.20;9.43;;;7.10;87.00;;;;;;5086804;28;20035;-51
2020/12/05 06:39:06;;;;;;;15.13;9.32;;;7.70;86.10;;;;;;5086356;28;20107;-52
2020/12/05 06:41:40;;;;;;;15.13;10.20;;;8.50;82.60;;;;;;5084869;28;20120;-51
2020/12/05 06:44:12;;;;;;;14.60;9.63;;;9.40;79.20;;;;;;5054172;28;20032;-51
2020/12/05 06:46:52;;;;;;;13.40;8.88;;;10.30;74.90;;;;;;5096885;28;20038;-52
2020/12/05 06:49:39;;;;;;;17.48;12.13;;;11.20;71.50;;;;;;5096374;28;20036;-52
2020/12/05 06:52:25;;;;;;;9.57;6.72;;;11.70;69.20;;;;;;5096623;28;20028;-52
2020/12/05 06:54:52;;;;;;;13.65;9.52;;;11.60;69.80;;;;;;5078291;28;20036;-52
2020/12/05 06:57:19;;;;;;;9.13;6.07;;;11.80;69.20;;;;;;5096797;28;20062;-52
2020/12/05 06:59:45;;;;;;;16.77;11.02;;;11.50;68.90;;;;;;5096620;28;20529;-52
2020/12/05 07:02:30;;;;;;;13.80;9.68;;;12.50;66.80;;;;;;5092574;28;20067;-53
2020/12/05 07:05:37;;;;;;;16.67;11.27;;;13.10;65.00;;;;;;5076251;28;20028;-52
2020/12/05 07:08:28;;;;;;;15.25;12.50;;;14.00;60.90;;;;;;4975117;28;20159;-52
2020/12/05 07:11:02;;;;;;;15.10;10.50;;;15.40;58.40;;;;;;4994858;28;20622;-52
2020/12/05 07:13:45;;;;;;;14.82;11.32;;;14.70;57.60;;;;;;4994663;28;20062;-53
2020/12/05 07:16:21;;;;;;;17.38;11.68;;;15.00;57.30;;;;;;4994512;28;20092;-53
2020/12/05 07:18:55;;;;;;;14.30;10.68;;;14.80;57.30;;;;;;4993075;28;20432;-52
2020/12/05 07:21:23;;;;;;;17.75;12.20;;;15.30;56.00;;;;;;4993957;28;20434;-52
2020/12/05 07:23:49;;;;;;;17.90;12.10;;;15.90;54.80;;;;;;4962009;28;20034;-53
2020/12/05 07:26:15;;;;;;;16.42;11.88;;;16.60;53.10;;;;;;4962101;28;20034;-50
2020/12/05 07:28:54;;;;;;;16.23;12.20;;;16.30;53.30;;;;;;4994420;28;20099;-50
2020/12/05 07:31:20;;;;;;;15.10;10.07;;;16.60;52.90;;;;;;4994464;28;20120;-51
2020/12/05 07:33:47;;;;;;;18.70;11.65;;;15.20;54.90;;;;;;4994363;28;20034;-50
2020/12/05 07:36:14;;;;;;;13.13;9.82;;;17.10;51.70;;;;;;4994208;28;20030;-51
2020/12/05 07:38:42;;;;;;;18.95;10.77;;;16.40;52.20;;;;;;4992905;28;20045;-50
2020/12/05 07:41:10;;;;;;;15.05;9.93;;;15.60;54.00;;;;;;5010339;28;20120;-49
2020/12/05 07:43:36;;;;;;;15.70;10.07;;;15.10;55.40;;;;;;5094455;28;20035;-50
2020/12/05 07:46:04;;;;;;;22.80;15.43;;;14.80;56.40;;;;;;5089401;28;20021;-52
2020/12/05 07:48:30;;;;;;;20.83;12.70;;;15.70;55.90;;;;;;5056339;28;20063;-49
2020/12/05 07:50:56;;;;;;;16.63;12.73;;;15.60;55.20;;;;;;5094460;28;20024;-46
2020/12/05 07:53:33;;;;;;;17.98;12.30;;;16.20;53.30;;;;;;5094466;28;20028;-46
2020/12/05 07:56:19;;;;;;;16.65;12.32;;;16.70;53.30;;;;;;5042023;28;20040;-47
2020/12/05 07:58:51;;;;;;;17.27;13.30;;;17.80;49.60;;;;;;5094419;28;20032;-50
2020/12/05 08:01:46;;;;;;;18.13;12.70;;;19.20;47.10;;;;;;5094257;28;20032;-50
2020/12/05 08:04:35;;;;;;;20.38;14.45;;;19.10;46.60;;;;;;5094156;28;20024;-49
2020/12/05 08:07:06;;;;;;;21.17;14.65;;;18.70;46.20;;;;;;5094097;28;20040;-49
2020/12/05 08:09:36;;;;;;;17.05;14.07;;;17.60;48.80;;;;;;5058470;28;20036;-50
2020/12/05 08:12:12;;;;;;;20.52;15.68;;;18.20;48.40;;;;;;5058317;28;20043;-50
2020/12/05 08:14:42;;;;;;;17.45;15.55;;;17.50;48.50;;;;;;5041492;28;20043;-50
2020/12/05 08:17:09;;;;;;;20.38;16.33;;;17.20;49.90;;;;;;5093327;28;20036;-50
2020/12/05 08:19:42;;;;;;;15.27;13.10;;;17.90;49.00;;;;;;5073632;28;20624;-50
2020/12/05 08:22:09;;;;;;;16.48;13.57;;;17.30;49.60;;;;;;5073681;28;20031;-49
2020/12/05 08:24:51;;;;;;;17.02;13.95;;;17.60;50.20;;;;;;5038129;28;20124;-49
2020/12/05 08:27:18;;;;;;;14.88;13.38;;;17.90;48.90;;;;;;5075399;28;20033;-49
2020/12/05 08:29:47;;;;;;;142.77;21.45;;;18.50;47.40;;;;;;5082885;28;20039;-49
2020/12/05 08:32:20;;;;;;;60.85;19.15;;;18.90;48.00;;;;;;5087430;28;20024;-49
2020/12/05 08:34:46;;;;;;;16.45;14.70;;;17.90;48.60;;;;;;5088396;28;20066;-49
2020/12/05 08:37:23;;;;;;;16.00;14.23;;;18.30;47.80;;;;;;5081945;28;20044;-49
2020/12/05 08:39:50;;;;;;;20.67;16.23;;;18.80;46.30;;;;;;5080884;28;20028;-49
2020/12/05 08:42:16;;;;;;;16.55;15.18;;;19.70;53.20;;;;;;5089244;28;20980;-48
2020/12/05 08:44:43;;;;;;;19.52;16.73;;;18.50;46.50;;;;;;5082197;28;20033;-49
2020/12/05 08:47:08;;;;;;;17.15;15.55;;;19.50;46.20;;;;;;5081040;28;20428;-49
2020/12/05 08:49:45;;;;;;;19.00;16.33;;;18.30;47.60;;;;;;5090842;28;20066;-49
2020/12/05 08:52:12;;;;;;;18.30;16.48;;;18.80;47.50;;;;;;5073196;28;20451;-49
2020/12/05 08:54:53;;;;;;;17.52;15.60;;;18.70;47.30;;;;;;5072884;28;20115;-50
2020/12/05 08:57:20;;;;;;;18.05;16.52;;;19.40;46.50;;;;;;5072807;28;20036;-49
2020/12/05 08:59:47;;;;;;;14.73;13.27;;;19.60;45.40;;;;;;5072951;28;20017;-49
2020/12/05 09:02:14;;;;;;;20.58;18.25;;;21.00;44.20;;;;;;5072938;28;20428;-50
2020/12/05 09:04:40;;;;;;;107.22;24.00;;;20.60;43.20;;;;;;5077330;28;20154;-48
2020/12/05 09:07:08;;;;;;;16.10;14.52;;;20.10;43.90;;;;;;5083555;28;20545;-47
2020/12/05 09:09:34;;;;;;;25.50;23.50;;;20.40;44.00;;;;;;5085907;28;20111;-49
2020/12/05 09:12:06;;;;;;;18.42;16.73;;;21.10;42.70;;;;;;5091135;28;20059;-48
2020/12/05 09:14:33;;;;;;;20.73;19.00;;;21.60;42.40;;;;;;5082685;28;20033;-48
2020/12/05 09:16:58;;;;;;;28.90;26.77;;;22.70;40.70;;;;;;5088669;28;20139;-47
2020/12/05 09:19:27;;;;;;;104.35;99.13;;;21.40;41.50;;;;;;5082075;28;20431;-51
2020/12/05 09:21:53;;;;;;;39.25;36.70;;;20.20;43.50;;;;;;5074460;28;20032;-50
2020/12/05 09:24:19;;;;;;;28.55;26.50;;;20.20;43.90;;;;;;5077885;28;20069;-49
2020/12/05 09:26:51;;;;;;;25.67;23.42;;;19.90;44.20;;;;;;5088794;28;20017;-48
2020/12/05 09:29:17;;;;;;;76.57;72.40;;;19.50;45.20;;;;;;5051723;28;20483;-48
2020/12/05 09:31:56;;;;;;;101.70;96.85;;;18.90;46.70;;;;;;5093685;28;20034;-50
2020/12/05 09:34:37;;;;;;;148.00;141.02;;;18.70;46.80;;;;;;5093650;28;20035;-48
2020/12/05 09:37:13;;;;;;;51.03;47.92;;;18.90;46.90;;;;;;5093732;28;20040;-48
2020/12/05 09:39:40;;;;;;;75.88;71.95;;;19.50;45.80;;;;;;5093645;28;20365;-48
2020/12/05 09:42:06;;;;;;;78.88;74.55;;;19.30;46.10;;;;;;5093850;28;20020;-48
2020/12/05 09:44:33;;;;;;;26.58;24.67;;;18.90;47.10;;;;;;5093887;28;20052;-48
2020/12/05 09:47:01;;;;;;;17.67;15.82;;;18.70;47.70;;;;;;5093449;28;20028;-49
2020/12/05 09:49:28;;;;;;;24.52;22.55;;;18.70;48.20;;;;;;5093984;28;20024;-50
2020/12/05 09:51:54;;;;;;;25.15;23.15;;;;;;;;;;5093385;28;20035;-48
2020/12/05 09:54:20;;;;;;;13.27;11.45;;;19.10;47.40;;;;;;5058016;28;20115;-48
2020/12/05 09:56:49;;;;;;;16.10;10.60;;;18.80;47.70;;;;;;5093288;28;20515;-50
2020/12/05 09:59:15;;;;;;;16.08;12.02;;;18.30;48.20;;;;;;5093312;28;20024;-50
2020/12/05 10:01:40;;;;;;;17.05;13.85;;;17.60;50.60;;;;;;5041668;28;20035;-49
2020/12/05 10:04:06;;;;;;;16.52;12.15;;;17.40;51.30;;;;;;5024482;28;20046;-50
2020/12/05 10:06:32;;;;;;;19.90;16.63;;;17.40;51.00;;;;;;5093460;28;20043;-50
2020/12/05 10:08:58;;;;;;;31.80;29.55;;;17.80;50.40;;;;;;5093183;28;20048;-48
2020/12/05 10:11:23;;;;;;;27.52;25.50;;;18.40;50.00;;;;;;5094339;28;20051;-48
2020/12/05 10:13:49;;;;;;;47.40;44.60;;;18.80;49.30;;;;;;5058529;28;20028;-48
2020/12/05 10:16:15;;;;;;;22.15;20.30;;;18.60;48.70;;;;;;5093398;28;20374;-49
2020/12/05 10:18:41;;;;;;;25.75;23.80;;;19.00;49.20;;;;;;5093291;28;20036;-48
2020/12/05 10:21:07;;;;;;;28.38;25.55;;;19.20;47.20;;;;;;5041490;28;20044;-48
2020/12/05 10:23:33;;;;;;;25.23;23.23;;;19.30;47.20;;;;;;5093480;28;20062;-50
2020/12/05 10:25:59;;;;;;;17.70;16.20;;;19.40;47.40;;;;;;5041614;28;20076;-48
2020/12/05 10:28:25;;;;;;;16.77;15.10;;;18.80;48.40;;;;;;5057552;28;20054;-49
2020/12/05 10:30:50;;;;;;;22.70;20.98;;;18.50;49.40;;;;;;5093263;28;20078;-50
2020/12/05 10:33:16;;;;;;;18.67;16.85;;;18.20;49.00;;;;;;5093077;28;20476;-48
2020/12/05 10:35:42;;;;;;;26.02;24.02;;;18.60;49.90;;;;;;5093203;28;20035;-48
2020/12/05 10:38:07;;;;;;;27.48;19.98;;;18.90;48.60;;;;;;5092990;28;20028;-50
2020/12/05 10:40:33;;;;;;;14.70;10.48;;;18.70;48.70;;;;;;5093073;28;20173;-50
2020/12/05 10:42:59;;;;;;;12.77;9.30;;;18.60;48.90;;;;;;5093287;28;20031;-48
2020/12/05 10:45:25;;;;;;;11.40;7.95;;;18.30;49.30;;;;;;5074650;28;20064;-48
2020/12/05 10:47:50;;;;;;;16.10;11.82;;;17.60;50.70;;;;;;5092641;28;20025;-48
2020/12/05 10:50:16;;;;;;;16.73;9.18;;;17.50;51.70;;;;;;5041470;28;20113;-49
2020/12/05 10:52:42;;;;;;;13.88;9.75;;;17.40;52.10;;;;;;5040794;28;20188;-48
2020/12/05 10:55:08;;;;;;;16.38;10.30;;;17.30;53.00;;;;;;5092927;28;20601;-48
2020/12/05 10:57:33;;;;;;;460.27;44.70;;;16.90;53.30;;;;;;5041112;28;20047;-48
2020/12/05 10:59:59;;;;;;;37.40;11.90;;;16.70;54.90;;;;;;5040839;28;20119;-49
2020/12/05 11:02:25;;;;;;;14.40;9.93;;;16.70;55.00;;;;;;5092970;28;20063;-49
2020/12/05 11:04:50;;;;;;;17.98;10.18;;;16.20;56.00;;;;;;5094422;28;20059;-48
2020/12/05 11:07:16;;;;;;;15.07;10.40;;;16.40;56.30;;;;;;5044376;28;20090;-49
2020/12/05 11:09:42;;;;;;;16.88;11.52;;;16.50;56.30;;;;;;4995443;28;20035;-48
2020/12/05 11:12:08;;;;;;;23.02;12.38;;;16.50;56.20;;;;;;5095812;28;20031;-48
2020/12/05 11:14:33;;;;;;;28.70;15.70;;;16.60;56.20;;;;;;5096415;28;20028;-47
2020/12/05 11:16:59;;;;;;;20.33;12.90;;;16.60;56.00;;;;;;5096284;28;20024;-47
2020/12/05 11:19:24;;;;;;;19.45;11.88;;;16.60;55.90;;;;;;5096243;28;20024;-48
2020/12/05 11:21:50;;;;;;;17.40;12.52;;;16.60;55.90;;;;;;5043301;28;20125;-48
2020/12/05 11:24:16;;;;;;;17.13;11.02;;;16.80;55.80;;;;;;5025501;28;20101;-50
2020/12/05 11:26:42;;;;;;;22.45;12.55;;;16.90;55.40;;;;;;5095111;28;20043;-47
2020/12/05 11:29:08;;;;;;;19.30;12.07;;;17.00;55.00;;;;;;5094973;28;20028;-49
2020/12/05 11:31:33;;;;;;;17.50;10.80;;;17.20;55.20;;;;;;5095034;28;20103;-50
2020/12/05 11:33:59;;;;;;;18.70;11.30;;;17.30;54.40;;;;;;5094936;28;20053;-48
2020/12/05 11:36:25;;;;;;;17.27;11.23;;;17.40;54.20;;;;;;5094825;28;20031;-48
2020/12/05 11:38:51;;;;;;;19.02;11.57;;;17.30;53.40;;;;;;5094795;28;20368;-51
2020/12/05 11:41:17;;;;;;;19.42;10.27;;;17.30;54.10;;;;;;5094711;28;20119;-48
2020/12/05 11:43:43;;;;;;;14.73;9.15;;;17.20;54.10;;;;;;5058944;28;20170;-50
2020/12/05 11:46:11;;;;;;;21.27;11.25;;;17.10;53.90;;;;;;5094731;28;20051;-50
2020/12/05 11:48:37;;;;;;;18.73;11.13;;;17.10;54.00;;;;;;5094503;28;20060;-49
2020/12/05 11:51:02;;;;;;;20.45;13.18;;;17.10;53.20;;;;;;5094838;28;20077;-49
2020/12/05 11:53:28;;;;;;;27.08;16.63;;;17.00;54.10;;;;;;5094480;28;20031;-48
2020/12/05 11:55:54;;;;;;;23.70;13.00;;;16.90;54.50;;;;;;5094609;28;20035;-48
2020/12/05 11:58:19;;;;;;;23.67;13.63;;;16.80;54.20;;;;;;5094355;28;20036;-49
2020/12/05 12:00:45;;;;;;;21.70;14.75;;;16.70;54.80;;;;;;5094345;28;20471;-50
2020/12/05 12:03:11;;;;;;;17.45;13.95;;;16.70;54.80;;;;;;5094369;28;20028;-49
2020/12/05 12:05:37;;;;;;;20.98;14.05;;;16.70;54.40;;;;;;5094401;28;20475;-51
2020/12/05 12:08:03;;;;;;;16.23;10.25;;;16.70;55.30;;;;;;5094083;28;20051;-49
2020/12/05 12:10:28;;;;;;;15.13;9.30;;;16.60;54.90;;;;;;5094241;28;20027;-48
2020/12/05 12:12:54;;;;;;;15.95;9.45;;;16.60;54.50;;;;;;5041969;28;20071;-50
2020/12/05 12:15:20;;;;;;;17.45;9.75;;;16.60;54.70;;;;;;5094224;28;20020;-49
2020/12/05 12:17:45;;;;;;;15.23;9.05;;;16.60;54.90;;;;;;5041887;28;20040;-49
2020/12/05 12:20:11;;;;;;;11.75;7.90;;;16.50;55.10;;;;;;5094035;28;20103;-48
2020/12/05 12:22:37;;;;;;;11.60;7.50;;;16.50;55.10;;;;;;5093983;28;20035;-50
2020/12/05 12:25:04;;;;;;;12.55;6.93;;;16.40;55.00;;;;;;5093925;28;20103;-49
2020/12/05 12:27:30;;;;;;;10.75;7.53;;;16.40;55.40;;;;;;5093913;28;20052;-49
2020/12/05 12:29:56;;;;;;;18.30;8.90;;;16.40;55.40;;;;;;5093807;28;20074;-49
2020/12/05 12:32:22;;;;;;;12.52;8.82;;;16.30;55.70;;;;;;5093830;28;20111;-48
2020/12/05 12:34:50;;;;;;;20.42;13.60;;;16.30;55.40;;;;;;5041529;28;20035;-50
2020/12/05 12:37:16;;;;;;;30.60;21.55;;;16.30;55.90;;;;;;5093596;28;20039;-49
2020/12/05 12:39:43;;;;;;;23.52;15.32;;;16.40;55.70;;;;;;5093717;28;20392;-49